Time;durP1;ratioP1;P1;durP2;ratioP2;P2;SDS_P1;SDS_P2;PMS_P1;PMS_P2;Temp;Humidity;BMP_temperature;BMP_pressure;BME280_temperature;BME280_humidity;BME280_pressure;Samples;Min_cycle;Max_cycle;Signal;HPM_P1;HPM_P2
2023/07/11 00:00:26;;;;;;;6.62;4.42;;;26.50;99.90;;;;;;1803518;78;21112;-78
2023/07/11 00:03:17;;;;;;;6.33;4.20;;;26.50;99.90;;;;;;1804720;78;21183;-81
2023/07/11 00:06:11;;;;;;;10.23;5.30;;;26.50;99.90;;;;;;1787700;79;21183;-79
2023/07/11 00:09:01;;;;;;;7.60;4.85;;;26.60;99.90;;;;;;1790780;80;21204;-81
2023/07/11 00:11:43;;;;;;;8.35;4.17;;;26.60;99.90;;;;;;1803882;79;21104;-79
2023/07/11 00:14:37;;;;;;;6.08;4.10;;;26.60;99.90;;;;;;1801048;78;21211;-82
2023/07/11 00:17:27;;;;;;;6.67;3.30;;;26.60;99.90;;;;;;1797219;79;21225;-81
2023/07/11 00:20:05;;;;;;;13.32;4.85;;;26.60;99.90;;;;;;1831932;77;21083;-80
2023/07/11 00:22:56;;;;;;;7.78;4.12;;;26.60;99.90;;;;;;1833895;77;21160;-81
2023/07/11 00:25:38;;;;;;;11.73;4.85;;;26.70;99.90;;;;;;1834400;77;21617;-84
2023/07/11 00:28:20;;;;;;;9.13;4.03;;;26.70;99.90;;;;;;1843132;76;21095;-82
2023/07/11 00:31:12;;;;;;;7.20;4.25;;;26.70;99.90;;;;;;1813537;77;21184;-79
2023/07/11 00:34:10;;;;;;;12.70;5.40;;;26.70;99.90;;;;;;1829548;77;21545;-80
2023/07/11 00:37:01;;;;;;;11.60;4.78;;;26.70;99.90;;;;;;1808241;78;21102;-80
2023/07/11 00:39:43;;;;;;;9.48;4.62;;;26.70;99.90;;;;;;1804456;78;21187;-82
2023/07/11 00:42:38;;;;;;;9.45;5.75;;;26.80;99.90;;;;;;1801396;78;21168;-78
2023/07/11 00:45:52;;;;;;;8.23;3.72;;;26.80;99.90;;;;;;1814631;78;21178;-83
2023/07/11 00:48:45;;;;;;;6.15;3.80;;;26.80;99.90;;;;;;1838550;77;21145;-84
2023/07/11 00:51:30;;;;;;;5.37;3.60;;;26.80;99.90;;;;;;1830846;77;21096;-82
2023/07/11 00:54:04;;;;;;;8.83;4.10;;;26.80;99.90;;;;;;1806319;78;21173;-81
2023/07/11 00:56:49;;;;;;;;;;;26.90;99.90;;;;;;1845418;76;21058;-79
2023/07/11 00:59:34;;;;;;;15.15;4.37;;;26.90;99.90;;;;;;1842492;77;20621;-79
2023/07/11 01:02:20;;;;;;;12.43;4.00;;;26.90;99.90;;;;;;1830062;77;21167;-83
2023/07/11 01:05:10;;;;;;;9.80;4.10;;;27.00;99.90;;;;;;1842062;77;21251;-81
2023/07/11 01:07:46;;;;;;;6.97;4.12;;;27.00;99.90;;;;;;1827614;77;21201;-81
2023/07/11 01:10:37;;;;;;;5.72;4.10;;;27.10;99.90;;;;;;1828806;77;21098;-81
2023/07/11 01:13:15;;;;;;;7.70;3.98;;;27.10;99.90;;;;;;1808308;78;21673;-80
2023/07/11 01:15:51;;;;;;;7.40;3.98;;;27.20;99.90;;;;;;1798587;78;21161;-77
2023/07/11 01:18:24;;;;;;;17.32;4.92;;;27.20;99.90;;;;;;1809396;77;21210;-76
2023/07/11 01:20:58;;;;;;;9.43;3.92;;;27.20;99.90;;;;;;1799297;79;21190;-77
2023/07/11 01:23:31;;;;;;;9.15;3.90;;;27.30;99.90;;;;;;1833240;77;21063;-83
2023/07/11 01:26:21;;;;;;;6.55;4.08;;;27.30;99.90;;;;;;1825810;77;21096;-80
2023/07/11 01:28:58;;;;;;;8.40;4.72;;;27.40;99.90;;;;;;1837170;77;21117;-68
2023/07/11 01:31:33;;;;;;;9.40;3.83;;;27.40;99.90;;;;;;1822576;77;21162;-67
2023/07/11 01:34:05;;;;;;;6.65;4.12;;;27.40;99.90;;;;;;1831043;77;21189;-69
2023/07/11 01:36:38;;;;;;;7.42;3.83;;;27.50;99.90;;;;;;1832720;77;21143;-67
2023/07/11 01:39:12;;;;;;;16.52;5.60;;;27.50;99.90;;;;;;1831728;77;21518;-69
2023/07/11 01:41:45;;;;;;;19.45;4.70;;;27.60;99.90;;;;;;1829777;77;21145;-68
2023/07/11 01:44:18;;;;;;;15.05;4.75;;;27.70;99.90;;;;;;1830545;77;21143;-67
2023/07/11 01:46:49;;;;;;;14.05;4.40;;;27.70;99.90;;;;;;1831932;77;21170;-68
2023/07/11 01:49:22;;;;;;;28.60;7.08;;;27.80;99.90;;;;;;1833881;77;21110;-67
2023/07/11 01:52:08;;;;;;;10.03;4.67;;;27.90;99.90;;;;;;1823217;77;21135;-67
2023/07/11 01:54:41;;;;;;;11.97;4.80;;;28.00;99.90;;;;;;1823724;77;21193;-69
2023/07/11 01:57:15;;;;;;;8.75;4.15;;;28.00;99.90;;;;;;1831115;77;21603;-68
2023/07/11 01:59:49;;;;;;;44.53;8.45;;;28.20;99.90;;;;;;1817950;77;21531;-68
2023/07/11 02:02:23;;;;;;;17.12;5.83;;;28.30;99.90;;;;;;1818869;77;21129;-69
2023/07/11 02:04:56;;;;;;;7.47;4.00;;;28.30;99.90;;;;;;1829398;77;21170;-69
2023/07/11 02:07:29;;;;;;;7.60;3.95;;;28.50;99.90;;;;;;1790126;78;21107;-68
2023/07/11 02:10:03;;;;;;;19.32;5.15;;;28.60;99.90;;;;;;1812792;77;21460;-66
2023/07/11 02:12:37;;;;;;;18.00;5.80;;;28.80;99.90;;;;;;1825180;77;21080;-68
2023/07/11 02:15:11;;;;;;;19.70;5.87;;;28.90;99.90;;;;;;1818114;77;21118;-68
2023/07/11 02:17:45;;;;;;;9.20;3.17;;;29.00;99.90;;;;;;1831569;77;21091;-68
2023/07/11 02:20:19;;;;;;;16.87;3.80;;;29.00;99.90;;;;;;1824639;77;21082;-68
2023/07/11 02:22:51;;;;;;;40.35;7.75;;;29.10;99.90;;;;;;1792924;79;21119;-68
2023/07/11 02:25:23;;;;;;;15.85;4.10;;;29.20;99.90;;;;;;1815229;77;21094;-67
2023/07/11 02:27:56;;;;;;;9.43;3.10;;;29.30;99.90;;;;;;1817607;77;21119;-68
2023/07/11 02:30:28;;;;;;;10.20;3.70;;;29.40;99.90;;;;;;1815885;77;21087;-67
2023/07/11 02:33:01;;;;;;;13.90;3.98;;;29.50;99.90;;;;;;1823141;77;21707;-66
2023/07/11 02:35:33;;;;;;;12.33;4.22;;;29.60;99.90;;;;;;1825517;77;21592;-67
2023/07/11 02:38:06;;;;;;;15.38;3.83;;;29.70;99.90;;;;;;1827350;77;21139;-67
2023/07/11 02:40:43;;;;;;;8.65;3.10;;;29.80;99.90;;;;;;1819747;77;21138;-67
2023/07/11 02:43:17;;;;;;;13.78;2.90;;;29.80;99.90;;;;;;1802123;79;21435;-68
2023/07/11 02:45:51;;;;;;;10.50;4.33;;;29.80;99.90;;;;;;1796364;79;21142;-68
2023/07/11 02:48:25;;;;;;;15.32;4.67;;;29.80;99.90;;;;;;1795616;78;21197;-68
2023/07/11 02:50:57;;;;;;;83.42;15.28;;;29.90;99.90;;;;;;1809642;78;21190;-68
2023/07/11 02:53:31;;;;;;;16.60;4.95;;;29.90;99.90;;;;;;1802445;78;21073;-67
2023/07/11 02:56:06;;;;;;;26.12;5.53;;;30.00;99.90;;;;;;1802858;78;21768;-68
2023/07/11 02:58:40;;;;;;;75.70;14.73;;;30.00;99.90;;;;;;1800634;78;21182;-68
2023/07/11 03:01:13;;;;;;;28.45;6.80;;;30.00;99.90;;;;;;1834455;77;21107;-69
2023/07/11 03:03:50;;;;;;;27.40;7.05;;;29.90;99.90;;;;;;1804608;78;21165;-68
2023/07/11 03:06:25;;;;;;;12.13;4.15;;;29.80;99.90;;;;;;1832266;77;21225;-67
2023/07/11 03:08:57;;;;;;;19.67;3.92;;;29.80;99.90;;;;;;1828770;77;21708;-68
2023/07/11 03:11:29;;;;;;;13.53;4.37;;;29.90;99.90;;;;;;1791546;79;21092;-66
2023/07/11 03:14:02;;;;;;;24.98;5.20;;;29.90;99.90;;;;;;1818622;77;21075;-67
2023/07/11 03:16:37;;;;;;;;;;;29.90;99.90;;;;;;1793381;77;21139;-66
2023/07/11 03:19:12;;;;;;;19.75;4.67;;;29.80;99.90;;;;;;1785571;80;20122;-67
2023/07/11 03:21:44;;;;;;;16.37;3.87;;;29.90;99.90;;;;;;1788166;79;21235;-67
2023/07/11 03:24:17;;;;;;;11.15;3.50;;;29.90;99.90;;;;;;1785710;78;21193;-66
2023/07/11 03:26:50;;;;;;;28.75;4.78;;;29.90;99.90;;;;;;1790776;79;21103;-68
2023/07/11 03:29:23;;;;;;;10.60;4.03;;;29.90;99.90;;;;;;1815127;77;21072;-66
2023/07/11 03:31:57;;;;;;;12.07;3.42;;;30.00;99.90;;;;;;1814515;77;21162;-68
2023/07/11 03:34:30;;;;;;;22.73;6.85;;;30.00;99.90;;;;;;1786701;79;21164;-68
2023/07/11 03:37:04;;;;;;;27.07;7.25;;;30.20;99.90;;;;;;1794368;79;21092;-67
2023/07/11 03:39:41;;;;;;;32.42;7.35;;;30.20;99.90;;;;;;1793721;79;21228;-68
2023/07/11 03:42:13;;;;;;;15.78;5.28;;;30.40;99.90;;;;;;1805148;78;21503;-68
2023/07/11 03:44:45;;;;;;;24.18;6.12;;;30.50;99.90;;;;;;1787331;79;21209;-67
2023/07/11 03:47:19;;;;;;;37.58;6.62;;;30.60;99.90;;;;;;1787358;79;21166;-68
2023/07/11 03:49:50;;;;;;;18.23;4.35;;;30.60;99.00;;;;;;1791690;79;21093;-68
2023/07/11 03:52:27;;;;;;;11.97;3.77;;;30.60;98.40;;;;;;1818146;77;21103;-68
2023/07/11 03:55:01;;;;;;;29.65;7.12;;;30.50;98.40;;;;;;1793197;79;21199;-69
2023/07/11 03:57:35;;;;;;;14.33;4.67;;;30.50;99.40;;;;;;1820930;77;21092;-66
2023/07/11 04:00:09;;;;;;;26.77;6.85;;;30.50;97.70;;;;;;1801678;78;21179;-69
2023/07/11 04:02:43;;;;;;;21.52;4.00;;;30.50;97.80;;;;;;1787415;79;21182;-68
2023/07/11 04:05:16;;;;;;;29.92;4.70;;;30.50;97.80;;;;;;1794155;79;21666;-68
2023/07/11 04:07:49;;;;;;;47.27;7.67;;;30.50;98.30;;;;;;1818998;77;21586;-67
2023/07/11 04:10:22;;;;;;;41.90;8.28;;;30.50;98.40;;;;;;1827554;77;21545;-69
2023/07/11 04:12:56;;;;;;;32.38;6.12;;;30.60;98.50;;;;;;1790885;79;21190;-69
2023/07/11 04:15:30;;;;;;;46.80;7.90;;;30.60;98.90;;;;;;1789652;79;21157;-68
2023/07/11 04:18:04;;;;;;;15.48;3.98;;;30.70;99.00;;;;;;1842556;76;21092;-69
2023/07/11 04:20:38;;;;;;;7.42;3.00;;;30.80;98.70;;;;;;1821353;77;21565;-68
2023/07/11 04:23:11;;;;;;;18.30;4.37;;;30.80;98.60;;;;;;1824374;77;21135;-72
2023/07/11 04:25:42;;;;;;;31.10;7.55;;;30.90;98.40;;;;;;1824184;77;21221;-68
2023/07/11 04:28:13;;;;;;;36.80;8.63;;;30.90;98.70;;;;;;1847026;76;21075;-71
2023/07/11 04:30:46;;;;;;;33.85;8.83;;;30.90;98.70;;;;;;1823658;77;21150;-68
2023/07/11 04:33:21;;;;;;;;;;;31.00;98.70;;;;;;1823589;77;21452;-69
2023/07/11 04:35:54;;;;;;;11.12;4.37;;;31.10;99.10;;;;;;1820191;77;20476;-67
2023/07/11 04:38:26;;;;;;;25.77;6.17;;;31.10;98.60;;;;;;1831745;77;21168;-68
2023/07/11 04:41:04;;;;;;;22.85;6.22;;;31.10;98.60;;;;;;1839389;77;21227;-68
2023/07/11 04:43:36;;;;;;;65.95;10.95;;;31.10;98.30;;;;;;1823679;76;21170;-68
2023/07/11 04:46:09;;;;;;;17.23;5.37;;;31.10;98.70;;;;;;1789821;79;21175;-68
2023/07/11 04:48:41;;;;;;;7.25;2.77;;;31.10;98.80;;;;;;1792122;79;21128;-70
2023/07/11 04:51:18;;;;;;;16.67;3.85;;;31.00;98.20;;;;;;1827902;77;21071;-67
2023/07/11 04:53:51;;;;;;;50.73;13.03;;;31.00;98.70;;;;;;1809999;78;21205;-67
2023/07/11 04:56:26;;;;;;;17.17;4.37;;;30.90;98.80;;;;;;1800973;78;21610;-67
2023/07/11 04:59:01;;;;;;;57.85;14.78;;;31.00;98.80;;;;;;1804919;78;21145;-67
2023/07/11 05:01:33;;;;;;;26.75;7.28;;;31.00;98.90;;;;;;1802005;78;21237;-67
2023/07/11 05:04:05;;;;;;;22.82;4.72;;;31.00;98.80;;;;;;1793452;78;21118;-68
2023/07/11 05:06:40;;;;;;;8.35;3.25;;;31.10;99.10;;;;;;1811007;78;21552;-67
2023/07/11 05:09:15;;;;;;;8.53;3.30;;;31.20;98.50;;;;;;1850278;77;21747;-67
2023/07/11 05:11:52;;;;;;;10.68;3.27;;;31.30;98.30;;;;;;1806997;78;21170;-67
2023/07/11 05:14:24;;;;;;;7.72;3.42;;;31.30;98.20;;;;;;1807522;78;21214;-67
2023/07/11 05:16:56;;;;;;;9.38;3.70;;;31.40;98.40;;;;;;1810182;78;21135;-69
2023/07/11 05:19:30;;;;;;;5.53;2.72;;;31.50;98.40;;;;;;1795299;79;21103;-66
2023/07/11 05:22:02;;;;;;;13.20;3.90;;;31.50;98.00;;;;;;1821499;77;21091;-68
2023/07/11 05:24:37;;;;;;;15.93;4.05;;;31.60;98.00;;;;;;1824808;77;21170;-68
2023/07/11 05:27:11;;;;;;;13.90;3.80;;;31.50;98.20;;;;;;1837278;77;21092;-67
2023/07/11 05:29:45;;;;;;;7.90;3.87;;;31.60;98.10;;;;;;1821720;77;21123;-68
2023/07/11 05:32:18;;;;;;;16.70;4.22;;;31.60;97.50;;;;;;1793305;79;21523;-67
2023/07/11 05:34:51;;;;;;;8.90;3.70;;;31.80;96.80;;;;;;1793010;79;21143;-68
2023/07/11 05:37:24;;;;;;;6.17;3.15;;;32.00;96.50;;;;;;1823118;77;21094;-67
2023/07/11 05:39:59;;;;;;;3.80;2.80;;;32.10;94.90;;;;;;1825802;78;21178;-67
2023/07/11 05:42:33;;;;;;;5.33;3.52;;;32.20;94.80;;;;;;1810782;78;21153;-68
2023/07/11 05:45:06;;;;;;;9.58;3.35;;;32.20;95.60;;;;;;1835785;77;21583;-68
2023/07/11 05:47:40;;;;;;;11.05;3.85;;;32.10;95.40;;;;;;1802708;78;21147;-70
2023/07/11 05:50:14;;;;;;;8.03;3.70;;;32.00;95.60;;;;;;1825290;77;21251;-68
2023/07/11 05:52:45;;;;;;;5.62;3.05;;;32.00;95.80;;;;;;1824862;77;21173;-68
2023/07/11 05:55:17;;;;;;;35.30;6.33;;;32.00;95.30;;;;;;1823065;77;21076;-67
2023/07/11 05:57:48;;;;;;;6.15;2.98;;;31.90;96.30;;;;;;1818814;79;21098;-67
2023/07/11 06:00:21;;;;;;;8.08;4.03;;;31.90;95.90;;;;;;1823930;78;21270;-67
2023/07/11 06:02:54;;;;;;;14.23;5.10;;;31.80;96.40;;;;;;1799704;78;21173;-68
2023/07/11 06:05:28;;;;;;;7.95;5.00;;;31.80;96.80;;;;;;1806118;78;21096;-67
2023/07/11 06:08:01;;;;;;;9.28;3.50;;;31.70;97.70;;;;;;1825223;77;21629;-68
2023/07/11 06:10:34;;;;;;;10.25;3.77;;;31.70;97.50;;;;;;1806392;78;21224;-69
2023/07/11 06:13:07;;;;;;;7.08;3.90;;;31.60;97.60;;;;;;1840192;77;21146;-67
2023/07/11 06:15:44;;;;;;;16.73;6.03;;;31.60;97.90;;;;;;1828259;77;21127;-69
2023/07/11 06:18:17;;;;;;;10.35;4.10;;;31.60;98.00;;;;;;1825714;77;21195;-70
2023/07/11 06:20:49;;;;;;;8.18;4.28;;;31.80;97.00;;;;;;1778013;79;21597;-68
2023/07/11 06:23:22;;;;;;;8.63;3.90;;;31.90;97.60;;;;;;1798771;78;21534;-68
2023/07/11 06:25:56;;;;;;;22.80;4.92;;;32.00;97.60;;;;;;1823976;77;21135;-69
2023/07/11 06:28:29;;;;;;;10.40;6.62;;;32.20;96.90;;;;;;1822203;77;21201;-68
2023/07/11 06:31:03;;;;;;;15.78;5.20;;;32.20;96.40;;;;;;1825238;78;21152;-68
2023/07/11 06:33:35;;;;;;;48.02;8.60;;;32.20;96.50;;;;;;1820333;78;21167;-68
2023/07/11 06:36:08;;;;;;;16.30;5.17;;;32.20;96.30;;;;;;1829134;77;21143;-70
2023/07/11 06:38:45;;;;;;;28.60;6.08;;;32.20;96.00;;;;;;1824765;77;21236;-68
2023/07/11 06:41:17;;;;;;;8.83;4.10;;;32.20;96.40;;;;;;1817518;77;21114;-68
2023/07/11 06:43:51;;;;;;;22.20;5.03;;;32.20;96.30;;;;;;1817468;77;21134;-68
2023/07/11 06:46:24;;;;;;;22.15;4.45;;;32.10;96.70;;;;;;1824538;77;21083;-69
2023/07/11 06:48:57;;;;;;;27.40;5.90;;;32.10;96.30;;;;;;1811400;78;21197;-69
2023/07/11 06:51:30;;;;;;;5.67;3.08;;;32.10;96.80;;;;;;1790191;78;21174;-67
2023/07/11 06:54:02;;;;;;;14.05;4.60;;;32.00;96.10;;;;;;1798927;78;21237;-69
2023/07/11 06:56:35;;;;;;;44.55;8.28;;;31.90;96.70;;;;;;1805043;78;21253;-68
2023/07/11 06:59:10;;;;;;;40.95;8.73;;;31.80;97.20;;;;;;1819441;77;21258;-67
2023/07/11 07:01:46;;;;;;;112.55;13.85;;;31.80;97.30;;;;;;1821966;78;21145;-69
2023/07/11 07:04:19;;;;;;;14.28;4.55;;;31.70;97.30;;;;;;1811252;77;21497;-68
2023/07/11 07:06:54;;;;;;;;;;;31.80;97.20;;;;;;1815127;77;21139;-69
2023/07/11 07:09:27;;;;;;;8.88;4.55;;;31.80;97.40;;;;;;1819317;77;20530;-68
2023/07/11 07:11:58;;;;;;;9.45;4.50;;;31.80;97.20;;;;;;1795062;78;21608;-69
2023/07/11 07:14:31;;;;;;;6.17;3.35;;;31.80;97.10;;;;;;1808132;78;21132;-67
2023/07/11 07:17:04;;;;;;;6.10;2.90;;;31.90;96.70;;;;;;1790158;79;21099;-68
2023/07/11 07:19:37;;;;;;;5.65;3.67;;;31.80;96.80;;;;;;1814853;77;21186;-69
2023/07/11 07:22:10;;;;;;;4.72;2.85;;;31.80;96.70;;;;;;1799061;78;21103;-69
2023/07/11 07:24:44;;;;;;;5.85;3.30;;;31.70;96.90;;;;;;1809972;78;21119;-68
2023/07/11 07:27:19;;;;;;;4.33;2.98;;;31.70;97.00;;;;;;1823381;77;21087;-67
2023/07/11 07:29:53;;;;;;;7.83;3.10;;;31.60;97.10;;;;;;1831821;77;21661;-68
2023/07/11 07:32:25;;;;;;;10.25;3.25;;;31.60;97.20;;;;;;1807129;78;21444;-69
2023/07/11 07:34:58;;;;;;;5.08;3.22;;;31.60;97.10;;;;;;1807655;78;21094;-69
2023/07/11 07:37:31;;;;;;;7.10;3.27;;;31.50;97.30;;;;;;1805060;78;21481;-69
2023/07/11 07:40:06;;;;;;;7.62;3.80;;;31.50;97.30;;;;;;1840945;78;21206;-69
2023/07/11 07:42:40;;;;;;;13.72;4.42;;;31.50;97.50;;;;;;1827701;77;21470;-69
2023/07/11 07:45:14;;;;;;;22.15;5.90;;;31.40;97.50;;;;;;1808543;78;21153;-69
2023/07/11 07:47:48;;;;;;;17.73;5.70;;;31.50;97.90;;;;;;1795844;78;21103;-67
2023/07/11 07:50:21;;;;;;;26.75;7.50;;;31.50;97.90;;;;;;1800906;78;21174;-69
2023/07/11 07:52:52;;;;;;;8.13;4.22;;;31.50;97.80;;;;;;1792995;79;21099;-67
2023/07/11 07:55:24;;;;;;;6.50;4.03;;;31.50;98.40;;;;;;1837490;77;21160;-70
2023/07/11 07:57:59;;;;;;;10.18;3.95;;;31.50;98.50;;;;;;1801251;78;21155;-68
2023/07/11 08:00:32;;;;;;;10.18;4.65;;;31.40;98.70;;;;;;1825833;77;21220;-68
2023/07/11 08:03:07;;;;;;;9.30;4.22;;;31.50;98.80;;;;;;1828711;77;21523;-67
2023/07/11 08:05:40;;;;;;;5.67;3.33;;;31.60;98.60;;;;;;1828274;77;21176;-68
2023/07/11 08:08:12;;;;;;;7.37;3.27;;;31.60;98.10;;;;;;1825244;78;21083;-68
2023/07/11 08:10:47;;;;;;;6.97;3.45;;;31.70;97.80;;;;;;1828869;77;21564;-67
2023/07/11 08:13:22;;;;;;;;;;;31.80;97.80;;;;;;1829526;77;21142;-68
2023/07/11 08:15:56;;;;;;;6.75;3.20;;;31.80;97.80;;;;;;1822417;77;20438;-69
2023/07/11 08:18:27;;;;;;;4.45;2.70;;;32.00;97.60;;;;;;1830192;77;21079;-68
2023/07/11 08:21:01;;;;;;;6.08;3.15;;;32.10;97.40;;;;;;1807192;78;21201;-69
2023/07/11 08:23:37;;;;;;;6.95;3.35;;;32.20;96.50;;;;;;1819829;77;21078;-68
2023/07/11 08:26:27;;;;;;;7.42;3.72;;;32.30;96.70;;;;;;1761668;79;21123;-68
2023/07/11 08:29:01;;;;;;;6.62;3.92;;;32.40;96.50;;;;;;1783514;79;21157;-68
2023/07/11 08:31:36;;;;;;;6.72;3.05;;;32.40;95.90;;;;;;1810180;77;21060;-67
2023/07/11 08:34:10;;;;;;;6.47;3.42;;;32.60;96.20;;;;;;1814689;79;21680;-68
2023/07/11 08:36:44;;;;;;;7.92;3.20;;;32.60;96.00;;;;;;1791279;79;21100;-67
2023/07/11 08:39:17;;;;;;;5.80;3.40;;;32.60;96.00;;;;;;1780323;80;21152;-67
2023/07/11 08:41:51;;;;;;;8.33;3.80;;;32.70;95.70;;;;;;1821022;77;21510;-67
2023/07/11 08:44:36;;;;;;;8.33;3.20;;;32.60;95.60;;;;;;1818655;77;21158;-69
2023/07/11 08:47:24;;;;;;;14.87;4.80;;;32.70;95.00;;;;;;1786369;80;21188;-68
2023/07/11 08:50:18;;;;;;;35.83;9.30;;;32.80;95.00;;;;;;1815791;79;21166;-67
2023/07/11 08:52:55;;;;;;;18.15;7.20;;;32.80;94.50;;;;;;1787597;79;21189;-68
2023/07/11 08:55:31;;;;;;;5.42;3.33;;;32.80;94.90;;;;;;1829039;77;21108;-68
2023/07/11 08:58:17;;;;;;;6.20;3.12;;;32.80;95.20;;;;;;1831765;77;21047;-68
2023/07/11 09:00:51;;;;;;;7.50;4.08;;;32.70;95.40;;;;;;1830613;77;21127;-69
2023/07/11 09:03:32;;;;;;;4.75;3.22;;;32.70;95.30;;;;;;1804823;78;21139;-68
2023/07/11 09:06:07;;;;;;;4.72;3.35;;;32.70;95.30;;;;;;1805948;79;21209;-67
2023/07/11 09:08:54;;;;;;;7.92;3.95;;;32.60;95.40;;;;;;1798009;79;21562;-71
2023/07/11 09:11:39;;;;;;;5.25;3.15;;;32.60;95.30;;;;;;1798217;79;21249;-66
2023/07/11 09:14:30;;;;;;;4.45;3.08;;;32.60;95.30;;;;;;1824555;77;21088;-67
2023/07/11 09:17:30;;;;;;;5.20;3.40;;;32.50;95.20;;;;;;1833500;77;21436;-67
2023/07/11 09:20:09;;;;;;;6.30;3.27;;;32.50;95.50;;;;;;1783051;79;21099;-68
2023/07/11 09:22:49;;;;;;;5.53;3.17;;;32.40;95.50;;;;;;1838716;77;21155;-67
2023/07/11 09:25:24;;;;;;;6.30;3.10;;;32.40;95.50;;;;;;1838590;77;21569;-67
2023/07/11 09:28:00;;;;;;;6.87;3.50;;;32.40;95.80;;;;;;1837460;77;21134;-67
2023/07/11 09:30:38;;;;;;;5.97;3.12;;;32.30;95.80;;;;;;1838643;77;21069;-67
2023/07/11 09:33:42;;;;;;;8.05;3.45;;;32.30;96.00;;;;;;1845489;76;21110;-69
2023/07/11 09:36:21;;;;;;;4.75;3.00;;;32.30;96.10;;;;;;1842182;77;21781;-68
2023/07/11 09:39:16;;;;;;;7.87;3.22;;;32.20;96.10;;;;;;1844479;77;21083;-68
2023/07/11 09:41:58;;;;;;;;;;;32.20;96.10;;;;;;1854295;77;21169;-69
2023/07/11 09:44:29;;;;;;;6.45;4.45;;;32.20;96.40;;;;;;1844579;75;20162;-68
2023/07/11 09:47:14;;;;;;;6.78;3.70;;;32.20;96.30;;;;;;1850237;77;21079;-68
2023/07/11 09:49:49;;;;;;;6.62;3.45;;;32.20;96.00;;;;;;1845134;77;21268;-68
2023/07/11 09:52:26;;;;;;;9.10;4.17;;;32.10;96.00;;;;;;1838758;77;21514;-68
2023/07/11 09:55:02;;;;;;;6.87;3.90;;;32.20;96.00;;;;;;1837442;77;21126;-68
2023/07/11 09:57:41;;;;;;;7.65;3.45;;;32.20;96.00;;;;;;1832825;77;21095;-68
2023/07/11 10:00:16;;;;;;;5.83;3.83;;;32.20;96.10;;;;;;1842928;77;21141;-67
2023/07/11 10:02:50;;;;;;;6.47;3.87;;;32.20;96.10;;;;;;1843216;77;21258;-68
2023/07/11 10:05:24;;;;;;;32.65;5.90;;;32.20;96.20;;;;;;1839140;77;21083;-68
2023/07/11 10:08:02;;;;;;;7.67;3.75;;;32.20;96.20;;;;;;1835718;77;21091;-69
2023/07/11 10:10:34;;;;;;;5.28;3.70;;;32.10;96.40;;;;;;1832341;77;21053;-79
2023/07/11 10:13:14;;;;;;;5.78;3.50;;;32.10;96.50;;;;;;1848183;77;21283;-81
2023/07/11 10:15:57;;;;;;;7.42;3.87;;;32.10;96.40;;;;;;1842069;77;21110;-83
2023/07/11 10:18:34;;;;;;;8.43;3.22;;;32.00;96.20;;;;;;1830796;77;21209;-83
2023/07/11 10:21:13;;;;;;;6.67;3.47;;;32.00;96.30;;;;;;1833269;77;21162;-82
2023/07/11 10:23:51;;;;;;;7.65;3.80;;;32.00;96.40;;;;;;1859861;77;21125;-85
2023/07/11 10:26:30;;;;;;;5.60;3.08;;;32.00;96.30;;;;;;1837368;77;21116;-86
2023/07/11 10:29:10;;;;;;;5.17;3.02;;;32.00;96.30;;;;;;1811369;78;21120;-79
2023/07/11 10:31:47;;;;;;;5.70;3.25;;;32.00;96.20;;;;;;1843669;77;21165;-81
2023/07/11 10:34:33;;;;;;;4.60;3.17;;;31.90;96.00;;;;;;1842266;77;21092;-80
2023/07/11 10:37:08;;;;;;;5.45;3.30;;;31.90;96.00;;;;;;1835836;77;21157;-80
2023/07/11 10:39:44;;;;;;;6.95;3.47;;;31.90;95.90;;;;;;1839400;77;21100;-82
2023/07/11 10:42:33;;;;;;;6.12;3.15;;;31.90;96.10;;;;;;1843589;77;21131;-82
2023/07/11 10:45:11;;;;;;;12.73;5.12;;;31.90;96.20;;;;;;1791408;79;21071;-85
2023/07/11 10:47:49;;;;;;;7.05;4.00;;;31.90;96.20;;;;;;1823659;78;21122;-82
2023/07/11 10:50:36;;;;;;;5.10;3.33;;;31.80;96.30;;;;;;1833362;77;21088;-81
2023/07/11 10:53:15;;;;;;;6.80;4.10;;;31.90;96.40;;;;;;1806258;78;21549;-83
2023/07/11 10:55:55;;;;;;;7.58;3.17;;;31.80;96.60;;;;;;1783964;79;21112;-82
2023/07/11 10:58:34;;;;;;;6.05;3.85;;;31.80;96.30;;;;;;1803985;79;21096;-85
2023/07/11 11:01:18;;;;;;;6.58;3.80;;;31.80;96.40;;;;;;1810443;79;21076;-79
2023/07/11 11:03:57;;;;;;;7.30;3.65;;;31.80;96.50;;;;;;1817225;78;21144;-84
2023/07/11 11:06:35;;;;;;;6.25;3.50;;;31.80;96.40;;;;;;1784116;78;21098;-84
2023/07/11 11:09:29;;;;;;;4.42;3.12;;;31.70;96.40;;;;;;1846771;77;21178;-85
2023/07/11 11:12:21;;;;;;;7.75;4.70;;;31.70;96.50;;;;;;1842571;77;21625;-84
2023/07/11 11:15:24;;;;;;;6.75;3.87;;;31.70;96.40;;;;;;1834231;77;21243;-82
2023/07/11 11:18:12;;;;;;;5.47;3.60;;;31.70;96.50;;;;;;1786439;78;21126;-84
2023/07/11 11:20:59;;;;;;;5.17;3.40;;;31.70;96.60;;;;;;1805876;78;21264;-82
2023/07/11 11:23:57;;;;;;;8.13;4.22;;;31.60;96.60;;;;;;1813029;77;21130;-81
2023/07/11 11:26:43;;;;;;;9.18;5.03;;;31.60;96.70;;;;;;1814579;77;21134;-82
2023/07/11 11:29:25;;;;;;;6.25;4.80;;;31.60;96.80;;;;;;1821029;77;21562;-82
2023/07/11 11:32:23;;;;;;;7.40;4.00;;;31.60;96.90;;;;;;1792190;77;21162;-82
2023/07/11 11:35:26;;;;;;;5.65;4.10;;;31.60;97.00;;;;;;1825839;77;21115;-82
2023/07/11 11:38:29;;;;;;;9.85;3.72;;;31.60;97.00;;;;;;1827462;77;21088;-82
2023/07/11 11:41:17;;;;;;;6.30;3.42;;;31.60;97.00;;;;;;1824990;77;21103;-84
2023/07/11 11:43:54;;;;;;;4.70;3.50;;;31.50;97.10;;;;;;1821917;77;21683;-84
2023/07/11 11:46:31;;;;;;;10.93;4.65;;;31.50;97.10;;;;;;1820350;77;21130;-83
2023/07/11 11:49:11;;;;;;;8.10;3.95;;;31.50;97.60;;;;;;1818518;77;21151;-82
2023/07/11 11:51:47;;;;;;;6.70;3.80;;;31.50;97.20;;;;;;1852221;77;21166;-85
2023/07/11 11:54:23;;;;;;;6.42;3.90;;;31.50;97.30;;;;;;1804819;79;21077;-81
2023/07/11 11:57:02;;;;;;;9.20;4.55;;;31.50;97.30;;;;;;1811435;78;21099;-81
2023/07/11 11:59:35;;;;;;;;;;;31.40;97.30;;;;;;1828713;78;21594;-81
2023/07/11 12:02:14;;;;;;;6.53;3.87;;;31.40;97.80;;;;;;1811832;78;20173;-85
2023/07/11 12:05:11;;;;;;;7.67;4.55;;;31.40;97.50;;;;;;1822003;78;21084;-83
2023/07/11 12:08:07;;;;;;;6.95;4.50;;;31.40;97.70;;;;;;1763363;79;21269;-82
2023/07/11 12:11:02;;;;;;;10.23;5.13;;;31.40;97.90;;;;;;1756026;80;21094;-81
2023/07/11 12:13:39;;;;;;;6.80;4.72;;;31.40;98.20;;;;;;1828941;77;21129;-85
2023/07/11 12:16:29;;;;;;;7.45;4.53;;;31.30;98.20;;;;;;1819840;78;21095;-82
2023/07/11 12:19:05;;;;;;;14.47;5.00;;;31.30;98.10;;;;;;1831252;78;21117;-83
2023/07/11 12:21:45;;;;;;;8.95;4.87;;;31.30;98.10;;;;;;1796540;79;21131;-84
2023/07/11 12:24:25;;;;;;;8.03;4.55;;;31.20;98.10;;;;;;1844101;77;21185;-83
2023/07/11 12:27:11;;;;;;;9.60;5.35;;;31.20;98.20;;;;;;1808488;79;21074;-80
2023/07/11 12:29:49;;;;;;;9.30;4.53;;;31.20;98.20;;;;;;1804013;78;21110;-82
2023/07/11 12:32:36;;;;;;;10.55;4.97;;;31.20;98.10;;;;;;1793104;79;21068;-82
2023/07/11 12:35:11;;;;;;;8.00;4.83;;;31.20;98.10;;;;;;1832298;77;21080;-81
2023/07/11 12:38:03;;;;;;;9.50;4.55;;;31.20;98.10;;;;;;1822470;78;21205;-84
2023/07/11 12:40:54;;;;;;;7.20;4.47;;;31.30;98.20;;;;;;1819495;77;21091;-84
2023/07/11 12:43:31;;;;;;;6.42;4.62;;;31.20;98.20;;;;;;1789133;77;21550;-83
2023/07/11 12:46:09;;;;;;;7.62;4.55;;;31.20;98.20;;;;;;1820908;79;21059;-81
2023/07/11 12:48:48;;;;;;;7.00;4.58;;;31.20;98.20;;;;;;1817054;79;21071;-83
2023/07/11 12:51:37;;;;;;;9.23;5.58;;;31.20;98.20;;;;;;1825242;77;21189;-83
2023/07/11 12:54:13;;;;;;;7.87;5.37;;;31.20;98.30;;;;;;1833220;77;21095;-85
2023/07/11 12:56:51;;;;;;;9.33;5.53;;;31.20;98.30;;;;;;1828423;77;21093;-81
2023/07/11 12:59:30;;;;;;;21.85;5.40;;;31.20;98.60;;;;;;1781204;79;21229;-84
2023/07/11 13:02:09;;;;;;;26.55;4.60;;;31.10;98.40;;;;;;1798886;79;21169;-83
2023/07/11 13:04:53;;;;;;;6.72;2.22;;;31.10;97.80;;;;;;1825104;77;21490;-81
2023/07/11 13:07:47;;;;;;;5.00;1.80;;;31.00;97.20;;;;;;1833078;77;21178;-84
2023/07/11 13:10:24;;;;;;;4.15;1.92;;;30.80;97.20;;;;;;1825504;77;21107;-87
2023/07/11 13:12:57;;;;;;;5.10;2.33;;;30.70;97.20;;;;;;1824116;79;21100;-87
2023/07/11 13:15:32;;;;;;;5.12;1.75;;;30.60;97.50;;;;;;1821817;77;21102;-86
2023/07/11 13:18:08;;;;;;;4.20;1.80;;;30.60;97.60;;;;;;1829060;77;21134;-88
2023/07/11 13:20:42;;;;;;;5.25;2.00;;;30.50;98.00;;;;;;1821705;77;21182;-85
2023/07/11 13:23:20;;;;;;;5.08;1.82;;;30.30;98.30;;;;;;1823974;77;21119;-85
2023/07/11 13:25:58;;;;;;;6.10;1.85;;;30.20;98.70;;;;;;1815667;77;21136;-86
2023/07/11 13:28:40;;;;;;;3.00;1.60;;;30.00;99.70;;;;;;1818560;77;21569;-81
2023/07/11 13:31:28;;;;;;;2.87;1.47;;;29.90;99.70;;;;;;1793974;78;21160;-84
2023/07/11 13:34:19;;;;;;;3.95;1.90;;;29.80;99.90;;;;;;1829125;77;21140;-84
2023/07/11 13:36:58;;;;;;;3.72;1.65;;;29.60;99.90;;;;;;1804359;78;21127;-82
2023/07/11 13:39:34;;;;;;;2.72;1.80;;;29.50;99.90;;;;;;1820434;79;21071;-85